Time;durP1;ratioP1;P1;durP2;ratioP2;P2;SDS_P1;SDS_P2;PMS_P1;PMS_P2;Temp;Humidity;BMP_temperature;BMP_pressure;BME280_temperature;BME280_humidity;BME280_pressure;Samples;Min_cycle;Max_cycle;Signal;HPM_P1;HPM_P2
2024/04/16 00:00:26;;;;;;;1.80;0.80;;;4.70;1.00;;;;;;5533506;26;20577;-37
2024/04/16 00:02:52;;;;;;;3.73;0.70;;;4.70;1.00;;;;;;5533989;26;20464;-37
2024/04/16 00:05:18;;;;;;;2.10;0.67;;;4.70;1.00;;;;;;5501039;26;20262;-37
2024/04/16 00:07:43;;;;;;;1.93;0.63;;;4.70;1.00;;;;;;5500573;26;20676;-37
2024/04/16 00:10:10;;;;;;;1.70;0.90;;;4.70;1.00;;;;;;5532991;26;20503;-36
2024/04/16 00:12:36;;;;;;;2.90;0.70;;;4.70;1.00;;;;;;5532499;26;20227;-36
2024/04/16 00:15:02;;;;;;;1.63;0.90;;;4.70;1.00;;;;;;5532643;26;20456;-37
2024/04/16 00:17:28;;;;;;;1.77;0.90;;;4.70;1.00;;;;;;5532778;26;20297;-36
2024/04/16 00:19:55;;;;;;;6.87;0.90;;;4.60;1.00;;;;;;5532303;26;20440;-36
2024/04/16 00:22:20;;;;;;;1.73;0.70;;;4.70;1.00;;;;;;5500028;26;20288;-37
2024/04/16 00:24:46;;;;;;;3.47;0.90;;;4.60;1.00;;;;;;5468077;26;20464;-37
2024/04/16 00:27:12;;;;;;;2.33;0.80;;;4.60;1.00;;;;;;5529667;26;20266;-36
2024/04/16 00:29:37;;;;;;;4.80;1.10;;;4.50;1.00;;;;;;5531053;26;20274;-37
2024/04/16 00:32:03;;;;;;;1.57;0.67;;;4.60;1.00;;;;;;5530808;26;20259;-37
2024/04/16 00:34:30;;;;;;;1.57;0.67;;;4.60;1.00;;;;;;5498463;26;20292;-37
2024/04/16 00:36:55;;;;;;;2.97;1.10;;;4.50;1.00;;;;;;5530560;26;20456;-37
2024/04/16 00:39:21;;;;;;;2.90;1.10;;;4.60;1.00;;;;;;5530640;26;20501;-37
2024/04/16 00:41:49;;;;;;;3.97;1.10;;;4.50;1.00;;;;;;5530465;26;20266;-37
2024/04/16 00:44:15;;;;;;;1.90;0.80;;;4.50;1.00;;;;;;5530596;26;20292;-38
2024/04/16 00:46:41;;;;;;;7.20;1.20;;;4.50;1.00;;;;;;5530068;26;20448;-37
2024/04/16 00:49:07;;;;;;;3.53;1.27;;;4.50;1.00;;;;;;5498024;26;20240;-37
2024/04/16 00:51:34;;;;;;;4.60;1.17;;;4.50;1.00;;;;;;5497721;26;20232;-37
2024/04/16 00:53:59;;;;;;;2.33;1.00;;;4.60;1.00;;;;;;5496602;26;20544;-37
2024/04/16 00:56:25;;;;;;;3.10;0.90;;;4.60;1.00;;;;;;5528587;26;20557;-38
2024/04/16 00:58:51;;;;;;;4.00;1.27;;;4.60;1.00;;;;;;5498273;26;20305;-37
2024/04/16 01:01:16;;;;;;;1.17;0.90;;;4.60;1.00;;;;;;5530513;26;20510;-37
2024/04/16 01:03:43;;;;;;;3.07;0.90;;;4.60;1.00;;;;;;5529128;26;20492;-37
2024/04/16 01:06:09;;;;;;;4.33;1.00;;;4.50;1.00;;;;;;5527317;26;20278;-37
2024/04/16 01:08:35;;;;;;;1.60;0.97;;;4.50;1.00;;;;;;5527070;26;20449;-37
2024/04/16 01:11:00;;;;;;;2.13;1.10;;;4.40;1.00;;;;;;5528711;26;20266;-37
2024/04/16 01:13:26;;;;;;;3.23;1.30;;;4.50;1.00;;;;;;5528644;26;20645;-37
2024/04/16 01:15:51;;;;;;;2.80;0.83;;;4.40;1.00;;;;;;5528595;26;20227;-35
2024/04/16 01:18:17;;;;;;;4.57;0.93;;;4.40;1.00;;;;;;5528326;26;20227;-36
2024/04/16 01:20:43;;;;;;;3.57;1.47;;;4.40;1.00;;;;;;5529803;26;20358;-37
2024/04/16 01:23:08;;;;;;;1.93;1.10;;;4.30;1.00;;;;;;5530256;26;20300;-37
2024/04/16 01:25:35;;;;;;;6.73;1.50;;;4.30;1.00;;;;;;5529348;26;20432;-37
2024/04/16 01:28:01;;;;;;;3.33;1.50;;;4.40;1.00;;;;;;5530301;26;20227;-36
2024/04/16 01:30:27;;;;;;;3.17;1.23;;;4.30;1.00;;;;;;5530033;26;20511;-37
2024/04/16 01:32:52;;;;;;;2.70;1.03;;;4.30;1.00;;;;;;5529407;26;20508;-37
2024/04/16 01:35:18;;;;;;;3.87;1.30;;;4.40;1.00;;;;;;5529671;26;20327;-37
2024/04/16 01:37:44;;;;;;;5.33;1.40;;;4.30;1.00;;;;;;5529943;26;20211;-37
2024/04/16 01:40:10;;;;;;;2.20;1.10;;;4.20;1.00;;;;;;5529378;26;20648;-36
2024/04/16 01:42:36;;;;;;;2.00;1.07;;;4.20;1.00;;;;;;5496127;26;20625;-36
2024/04/16 01:45:02;;;;;;;2.10;1.23;;;4.20;1.00;;;;;;5529813;26;20511;-37
2024/04/16 01:47:27;;;;;;;4.50;1.00;;;4.20;1.00;;;;;;5529033;26;20661;-37
2024/04/16 01:49:53;;;;;;;5.30;1.47;;;4.20;1.00;;;;;;5529448;26;20444;-35
2024/04/16 01:52:19;;;;;;;3.10;1.00;;;4.20;1.00;;;;;;5496476;26;20287;-36
2024/04/16 01:54:44;;;;;;;7.57;1.83;;;4.20;1.00;;;;;;5529401;26;20228;-37
2024/04/16 01:57:10;;;;;;;4.70;1.10;;;4.10;1.00;;;;;;5529228;26;20235;-37
2024/04/16 01:59:35;;;;;;;2.10;1.40;;;4.10;1.00;;;;;;5529099;26;20239;-37
2024/04/16 02:02:01;;;;;;;2.97;1.37;;;4.10;1.00;;;;;;5527628;26;20207;-38
2024/04/16 02:04:27;;;;;;;3.37;1.00;;;4.20;1.00;;;;;;5527859;26;20212;-36
2024/04/16 02:06:52;;;;;;;7.20;1.60;;;4.10;1.00;;;;;;5496355;26;20320;-37
2024/04/16 02:09:18;;;;;;;4.50;1.03;;;4.10;1.00;;;;;;5528741;26;20496;-36
2024/04/16 02:11:44;;;;;;;1.47;0.87;;;4.10;1.00;;;;;;5528653;26;20327;-36
2024/04/16 02:14:10;;;;;;;3.30;1.13;;;4.10;1.00;;;;;;5528432;26;20320;-37
2024/04/16 02:16:35;;;;;;;2.30;1.17;;;4.10;1.00;;;;;;5530102;26;20874;-38
2024/04/16 02:19:01;;;;;;;4.10;1.50;;;4.20;1.00;;;;;;5530903;26;20223;-38
2024/04/16 02:21:27;;;;;;;2.10;1.20;;;4.10;1.00;;;;;;5531868;26;20278;-37
2024/04/16 02:23:52;;;;;;;1.90;1.23;;;4.10;1.00;;;;;;5532254;26;20664;-37
2024/04/16 02:26:18;;;;;;;3.10;1.37;;;4.20;1.00;;;;;;5532291;26;20219;-36
2024/04/16 02:28:43;;;;;;;1.97;1.00;;;4.10;1.00;;;;;;5532257;26;20270;-37
2024/04/16 02:31:09;;;;;;;2.40;1.27;;;4.10;1.00;;;;;;5532204;26;20223;-37
2024/04/16 02:33:35;;;;;;;4.37;1.60;;;4.20;1.00;;;;;;5531800;26;20273;-36
2024/04/16 02:36:03;;;;;;;2.00;1.20;;;4.00;1.00;;;;;;5531434;26;20619;-37
2024/04/16 02:38:29;;;;;;;2.50;1.37;;;4.00;1.00;;;;;;5501139;26;20266;-37
2024/04/16 02:40:55;;;;;;;1.27;0.90;;;3.90;1.00;;;;;;5534442;26;20432;-36
2024/04/16 02:43:21;;;;;;;3.00;1.53;;;3.90;1.00;;;;;;5500829;26;20488;-38
2024/04/16 02:45:47;;;;;;;2.03;1.30;;;3.90;1.00;;;;;;5500175;26;20905;-37
2024/04/16 02:48:12;;;;;;;4.90;1.40;;;3.80;1.00;;;;;;5532564;26;20270;-36
2024/04/16 02:50:38;;;;;;;2.03;1.20;;;3.90;1.00;;;;;;5529505;26;20227;-37
2024/04/16 02:53:04;;;;;;;3.57;1.67;;;4.00;1.00;;;;;;5531335;26;20283;-38
2024/04/16 02:55:30;;;;;;;2.97;1.70;;;3.90;1.00;;;;;;5531734;26;20211;-37
2024/04/16 02:57:55;;;;;;;1.80;0.93;;;3.90;1.00;;;;;;5532492;26;20594;-36
2024/04/16 03:00:21;;;;;;;3.67;1.50;;;4.00;1.00;;;;;;5531703;26;20282;-38
2024/04/16 03:02:46;;;;;;;4.87;1.23;;;3.90;1.00;;;;;;5531554;26;20227;-43
2024/04/16 03:05:12;;;;;;;3.00;1.20;;;3.90;1.00;;;;;;5531758;26;20259;-37
2024/04/16 03:07:38;;;;;;;2.70;1.63;;;3.90;1.00;;;;;;5530162;26;20216;-36
2024/04/16 03:10:04;;;;;;;2.83;1.20;;;3.90;1.00;;;;;;5529992;26;20243;-37
2024/04/16 03:12:30;;;;;;;1.83;1.00;;;3.80;1.00;;;;;;5529305;26;20227;-37
2024/04/16 03:14:55;;;;;;;1.70;1.10;;;3.90;1.00;;;;;;5531159;26;20447;-36
2024/04/16 03:17:21;;;;;;;3.77;1.27;;;3.90;1.00;;;;;;5530563;26;20219;-38
2024/04/16 03:19:46;;;;;;;2.83;1.40;;;3.90;1.00;;;;;;5527135;26;20266;-37
2024/04/16 03:22:13;;;;;;;4.47;1.50;;;4.00;1.00;;;;;;5528441;26;20273;-36
2024/04/16 03:24:38;;;;;;;2.70;1.33;;;3.90;1.00;;;;;;5528767;26;20559;-35
2024/04/16 03:27:04;;;;;;;1.63;1.10;;;3.90;1.00;;;;;;5527265;26;20456;-40
2024/04/16 03:29:30;;;;;;;4.03;1.40;;;4.00;1.00;;;;;;5527247;26;20228;-37
2024/04/16 03:31:55;;;;;;;3.70;0.97;;;3.90;1.00;;;;;;5528221;26;20212;-37
2024/04/16 03:34:21;;;;;;;3.43;1.37;;;3.90;1.00;;;;;;5528045;26;20481;-37
2024/04/16 03:36:47;;;;;;;3.33;1.57;;;4.00;1.00;;;;;;5528641;26;20323;-37
2024/04/16 03:39:13;;;;;;;2.30;1.43;;;4.00;1.00;;;;;;5529557;26;20262;-37
2024/04/16 03:41:39;;;;;;;1.87;1.20;;;4.00;1.00;;;;;;5529448;26;20460;-37
2024/04/16 03:44:04;;;;;;;3.67;1.60;;;4.00;1.00;;;;;;5528543;26;20437;-37
2024/04/16 03:46:30;;;;;;;4.07;1.30;;;4.00;1.00;;;;;;5530182;26;20272;-37
2024/04/16 03:48:55;;;;;;;3.97;1.30;;;4.00;1.00;;;;;;5531005;26;20235;-36
2024/04/16 03:51:21;;;;;;;2.00;1.07;;;4.00;1.00;;;;;;5530402;26;20579;-38
2024/04/16 03:53:46;;;;;;;5.40;1.43;;;4.10;1.00;;;;;;5529186;26;20473;-37
2024/04/16 03:56:12;;;;;;;2.70;1.20;;;4.10;1.00;;;;;;5528681;26;20316;-37
2024/04/16 03:58:54;;;;;;;2.77;1.40;;;4.10;1.00;;;;;;5526851;26;20299;-36
2024/04/16 04:01:20;;;;;;;1.63;1.03;;;4.20;1.00;;;;;;5531120;26;20498;-37
2024/04/16 04:03:46;;;;;;;2.13;1.00;;;4.10;1.00;;;;;;5531136;26;20568;-38
2024/04/16 04:06:11;;;;;;;2.13;1.00;;;4.00;1.00;;;;;;5531798;26;20456;-37
2024/04/16 04:08:37;;;;;;;1.40;1.10;;;4.10;1.00;;;;;;5531354;26;20698;-37
2024/04/16 04:11:04;;;;;;;2.00;1.10;;;3.90;1.00;;;;;;5468057;26;20316;-37
2024/04/16 04:13:30;;;;;;;1.93;1.13;;;3.90;1.00;;;;;;5529751;26;20300;-38
2024/04/16 04:15:56;;;;;;;2.13;1.07;;;3.90;1.00;;;;;;5528828;26;20957;-38
2024/04/16 04:18:22;;;;;;;1.70;1.03;;;3.90;1.00;;;;;;5528644;26;20558;-37
2024/04/16 04:20:48;;;;;;;3.07;1.10;;;3.90;1.00;;;;;;5528742;26;20460;-38
2024/04/16 04:23:14;;;;;;;4.23;1.20;;;3.90;1.00;;;;;;5527369;26;20518;-37
2024/04/16 04:25:39;;;;;;;2.40;1.13;;;3.80;1.00;;;;;;5527888;26;20211;-36
2024/04/16 04:28:05;;;;;;;1.50;1.10;;;3.80;1.00;;;;;;5494752;26;20460;-37
2024/04/16 04:30:30;;;;;;;3.63;1.40;;;3.80;1.00;;;;;;5525650;26;20227;-38
2024/04/16 04:32:56;;;;;;;1.50;1.07;;;3.90;1.00;;;;;;5530273;26;20232;-37
2024/04/16 04:35:21;;;;;;;3.90;1.40;;;3.90;1.00;;;;;;5530783;26;20459;-37
2024/04/16 04:37:47;;;;;;;2.90;1.37;;;3.90;1.00;;;;;;5530414;26;20215;-38
2024/04/16 04:40:13;;;;;;;3.20;1.33;;;3.90;1.00;;;;;;5529020;26;20274;-37
2024/04/16 04:42:38;;;;;;;3.57;1.57;;;3.80;1.00;;;;;;5529346;26;20243;-37
2024/04/16 04:45:04;;;;;;;2.97;1.13;;;3.90;1.00;;;;;;5529820;26;20617;-37
2024/04/16 04:47:30;;;;;;;2.97;1.20;;;3.90;1.00;;;;;;5497365;26;20271;-36
2024/04/16 04:49:55;;;;;;;1.10;0.97;;;3.90;1.00;;;;;;5530714;26;20320;-36
2024/04/16 04:52:21;;;;;;;2.10;1.00;;;3.90;1.00;;;;;;5529170;26;20278;-37
2024/04/16 04:54:47;;;;;;;1.77;1.30;;;3.90;1.00;;;;;;5527704;26;20227;-37
2024/04/16 04:57:13;;;;;;;4.27;1.50;;;3.90;1.00;;;;;;5526037;26;20243;-38
2024/04/16 04:59:38;;;;;;;2.37;1.07;;;4.00;1.00;;;;;;5525131;26;20243;-37
2024/04/16 05:02:04;;;;;;;2.73;0.83;;;4.00;1.00;;;;;;5527755;26;20568;-37
2024/04/16 05:04:29;;;;;;;1.70;0.90;;;3.90;1.00;;;;;;5527042;26;20255;-36
2024/04/16 05:06:55;;;;;;;2.70;1.07;;;3.90;1.00;;;;;;5491076;26;20439;-36
2024/04/16 05:09:21;;;;;;;3.13;1.40;;;4.00;1.00;;;;;;5524897;26;20227;-36
2024/04/16 05:11:46;;;;;;;3.43;1.30;;;4.00;1.00;;;;;;5513023;26;20248;-37
2024/04/16 05:14:12;;;;;;;3.70;1.97;;;4.10;1.00;;;;;;5490528;26;20216;-36
2024/04/16 05:16:38;;;;;;;4.03;1.43;;;4.10;1.00;;;;;;5491146;26;20566;-36
2024/04/16 05:19:03;;;;;;;3.10;1.60;;;4.20;1.00;;;;;;5486158;26;20224;-36
2024/04/16 05:21:29;;;;;;;4.50;1.10;;;4.30;1.00;;;;;;5485468;26;20701;-37
2024/04/16 05:23:55;;;;;;;4.70;1.30;;;4.30;1.00;;;;;;5526135;26;20282;-37
2024/04/16 05:26:22;;;;;;;5.20;1.60;;;4.30;1.00;;;;;;5484665;26;20692;-36
2024/04/16 05:28:51;;;;;;;3.73;1.50;;;4.30;99.90;;;;;;5488608;26;20457;-36
2024/04/16 05:31:17;;;;;;;3.30;1.60;;;4.30;99.90;;;;;;5489783;26;20522;-36
2024/04/16 05:33:43;;;;;;;6.43;2.53;;;4.40;99.90;;;;;;5487823;26;20454;-37
2024/04/16 05:36:08;;;;;;;4.10;1.60;;;4.50;99.90;;;;;;5489639;26;20518;-37
2024/04/16 05:38:35;;;;;;;3.10;1.27;;;4.50;99.90;;;;;;5487932;26;20305;-36
2024/04/16 05:41:01;;;;;;;3.70;1.87;;;4.60;99.90;;;;;;5482414;26;20208;-37
2024/04/16 05:43:27;;;;;;;3.90;1.93;;;4.70;99.90;;;;;;5485743;26;20438;-36
2024/04/16 05:45:53;;;;;;;4.60;1.73;;;4.70;99.90;;;;;;5490138;26;20522;-37
2024/04/16 05:48:18;;;;;;;3.93;1.80;;;4.80;99.90;;;;;;5489393;26;20338;-37
2024/04/16 05:50:44;;;;;;;7.00;1.90;;;4.80;99.90;;;;;;5489719;26;20454;-37
2024/04/16 05:53:09;;;;;;;2.90;1.60;;;4.90;99.90;;;;;;5485572;26;20273;-37
2024/04/16 05:55:35;;;;;;;5.90;2.03;;;4.80;99.90;;;;;;5489274;26;20221;-36
2024/04/16 05:58:00;;;;;;;6.87;1.90;;;4.80;99.90;;;;;;5488972;26;20225;-36
2024/04/16 06:00:26;;;;;;;10.90;2.47;;;4.90;99.90;;;;;;5457270;26;20232;-37
2024/04/16 06:02:53;;;;;;;11.70;2.27;;;5.00;99.90;;;;;;5489591;26;20670;-36
2024/04/16 06:05:18;;;;;;;7.30;2.30;;;5.00;99.90;;;;;;5488084;26;20263;-45
2024/04/16 06:07:44;;;;;;;6.47;2.13;;;5.20;99.90;;;;;;5486824;26;20958;-43
2024/04/16 06:10:09;;;;;;;7.30;2.77;;;5.80;1.00;;;;;;5488710;26;20232;-41
2024/04/16 06:12:35;;;;;;;4.87;1.80;;;6.40;1.00;;;;;;5489305;26;20232;-41
2024/04/16 06:15:01;;;;;;;6.10;1.80;;;6.50;1.00;;;;;;5455473;26;20240;-42
2024/04/16 06:17:26;;;;;;;5.70;1.97;;;6.50;1.00;;;;;;5491005;26;20228;-41
2024/04/16 06:19:52;;;;;;;8.00;2.63;;;6.30;1.00;;;;;;5490717;26;20235;-41
2024/04/16 06:22:17;;;;;;;9.00;2.20;;;6.30;1.00;;;;;;5490175;26;20229;-40
2024/04/16 06:24:43;;;;;;;5.90;1.67;;;6.30;1.00;;;;;;5490075;26;20701;-41
2024/04/16 06:27:09;;;;;;;8.63;2.20;;;6.30;99.90;;;;;;5490929;26;20317;-43
2024/04/16 06:29:37;;;;;;;5.00;1.63;;;6.20;1.00;;;;;;5484849;26;20674;-40
2024/04/16 06:32:04;;;;;;;7.27;1.80;;;6.30;1.00;;;;;;5454663;26;20244;-40
2024/04/16 06:34:30;;;;;;;3.50;1.70;;;6.40;99.90;;;;;;5487164;26;20800;-43
2024/04/16 06:36:55;;;;;;;4.97;1.97;;;6.50;99.90;;;;;;5486020;26;20502;-40
2024/04/16 06:39:21;;;;;;;8.10;2.07;;;6.50;99.50;;;;;;5486246;26;20244;-41
2024/04/16 06:41:47;;;;;;;6.33;2.00;;;6.40;26.80;;;;;;5488375;26;20278;-40
2024/04/16 06:44:13;;;;;;;7.83;2.20;;;6.50;1.00;;;;;;5489904;26;20445;-40
2024/04/16 06:46:38;;;;;;;6.57;2.00;;;6.50;42.90;;;;;;5428351;26;20237;-41
2024/04/16 06:49:04;;;;;;;8.30;2.27;;;6.70;1.00;;;;;;5426890;26;20229;-41
2024/04/16 06:51:30;;;;;;;4.80;1.43;;;6.70;1.00;;;;;;5487533;26;20238;-41
2024/04/16 06:53:55;;;;;;;5.43;1.93;;;6.80;1.00;;;;;;5486569;26;20233;-44
2024/04/16 06:56:21;;;;;;;5.80;1.40;;;6.70;1.00;;;;;;5488096;26;20270;-43
2024/04/16 06:58:46;;;;;;;4.30;1.70;;;7.00;99.90;;;;;;5447565;26;20605;-41
2024/04/16 07:01:12;;;;;;;5.13;1.60;;;7.00;22.20;;;;;;5454236;26;20345;-41
2024/04/16 07:03:38;;;;;;;3.27;1.50;;;7.00;1.00;;;;;;5458057;26;20480;-43
2024/04/16 07:06:04;;;;;;;5.37;1.83;;;7.10;20.90;;;;;;5458893;26;20538;-44
2024/04/16 07:08:29;;;;;;;6.17;1.67;;;7.10;1.00;;;;;;5458092;26;20307;-41
2024/04/16 07:10:55;;;;;;;8.40;1.70;;;7.00;99.90;;;;;;5456278;26;20454;-40
2024/04/16 07:13:21;;;;;;;6.90;2.10;;;7.00;1.00;;;;;;5466970;26;20918;-41
2024/04/16 07:15:46;;;;;;;3.77;1.70;;;7.10;1.00;;;;;;5460701;26;20265;-41
2024/04/16 07:18:12;;;;;;;5.40;2.10;;;7.30;99.90;;;;;;5460925;26;20347;-40
2024/04/16 07:20:37;;;;;;;5.10;1.50;;;7.20;1.00;;;;;;5456340;26;20282;-41
2024/04/16 07:23:03;;;;;;;3.83;1.47;;;7.10;99.90;;;;;;5456325;26;20596;-43
2024/04/16 07:25:29;;;;;;;6.00;1.57;;;7.20;99.90;;;;;;5458934;26;20260;-41
2024/04/16 07:27:54;;;;;;;3.03;1.10;;;7.40;99.90;;;;;;5459946;26;20334;-41
2024/04/16 07:30:20;;;;;;;4.73;1.83;;;7.50;99.90;;;;;;5455696;26;20343;-41
2024/04/16 07:32:45;;;;;;;5.53;1.50;;;7.40;1.00;;;;;;5455865;26;20286;-42
2024/04/16 07:35:11;;;;;;;2.30;1.60;;;7.30;20.10;;;;;;5452445;26;20283;-42
2024/04/16 07:37:37;;;;;;;7.00;2.23;;;7.30;13.10;;;;;;5455754;26;20209;-41
2024/04/16 07:40:03;;;;;;;6.73;1.57;;;7.30;53.80;;;;;;5455816;26;20640;-40
2024/04/16 07:42:29;;;;;;;5.57;2.30;;;7.30;1.00;;;;;;5456737;26;20229;-42
2024/04/16 07:44:54;;;;;;;3.30;1.50;;;7.50;1.00;;;;;;5456012;26;20503;-42
2024/04/16 07:47:21;;;;;;;3.63;1.20;;;7.50;1.00;;;;;;5456791;26;20659;-42
2024/04/16 07:49:47;;;;;;;10.80;1.90;;;7.50;99.90;;;;;;5455643;26;20643;-41
2024/04/16 07:52:12;;;;;;;5.40;1.37;;;7.50;99.90;;;;;;5455319;26;20522;-41
2024/04/16 07:54:38;;;;;;;6.93;1.40;;;7.50;99.90;;;;;;5453196;26;20241;-42
2024/04/16 07:57:04;;;;;;;3.80;1.40;;;7.40;99.90;;;;;;5454290;26;20226;-42
2024/04/16 07:59:29;;;;;;;2.10;1.10;;;7.40;99.90;;;;;;5451228;26;20277;-43
2024/04/16 08:01:55;;;;;;;5.40;1.83;;;7.30;99.90;;;;;;5456408;26;20235;-42
2024/04/16 08:04:20;;;;;;;8.70;1.47;;;7.30;99.90;;;;;;5456794;26;20490;-42
2024/04/16 08:06:48;;;;;;;3.50;1.10;;;7.40;1.00;;;;;;5453800;26;20230;-41
2024/04/16 08:09:14;;;;;;;4.87;1.20;;;7.50;99.90;;;;;;5456445;26;20273;-42
2024/04/16 08:11:39;;;;;;;14.30;4.57;;;7.60;99.90;;;;;;5454844;26;20912;-41
2024/04/16 08:14:05;;;;;;;3.30;1.40;;;7.60;99.90;;;;;;5453599;26;20508;-41
2024/04/16 08:16:30;;;;;;;1.83;1.13;;;7.50;99.90;;;;;;5453469;26;20232;-42
2024/04/16 08:18:56;;;;;;;6.40;1.63;;;7.50;99.90;;;;;;5454188;26;20389;-42
2024/04/16 08:21:22;;;;;;;3.07;1.80;;;7.60;99.90;;;;;;5455414;26;20225;-42
2024/04/16 08:23:52;;;;;;;4.93;1.50;;;7.60;99.90;;;;;;5456415;26;20455;-41
2024/04/16 08:26:18;;;;;;;4.63;1.40;;;7.50;99.90;;;;;;5455461;26;20541;-43
2024/04/16 08:28:43;;;;;;;2.90;1.50;;;7.60;99.90;;;;;;5457993;26;20735;-42
2024/04/16 08:31:09;;;;;;;2.13;1.10;;;7.80;99.90;;;;;;5455662;26;20225;-43
2024/04/16 08:33:34;;;;;;;2.80;1.10;;;8.10;99.90;;;;;;5455765;26;20276;-42
2024/04/16 08:36:00;;;;;;;3.27;1.40;;;8.10;99.90;;;;;;5421917;26;20685;-43
2024/04/16 08:38:25;;;;;;;4.03;1.20;;;8.20;99.90;;;;;;5455975;26;20225;-41
2024/04/16 08:40:51;;;;;;;5.97;1.40;;;8.40;99.90;;;;;;5455518;26;20255;-42
2024/04/16 08:43:17;;;;;;;4.37;1.30;;;8.50;99.90;;;;;;5454805;26;20221;-43
2024/04/16 08:45:43;;;;;;;3.20;1.10;;;8.80;99.90;;;;;;5453239;26;20229;-44
2024/04/16 08:48:09;;;;;;;4.33;1.67;;;8.90;92.10;;;;;;5453428;26;20289;-43
2024/04/16 08:50:36;;;;;;;7.33;1.57;;;8.80;69.80;;;;;;5453306;26;20451;-41
2024/04/16 08:53:02;;;;;;;8.40;1.60;;;8.70;79.80;;;;;;5454802;26;20210;-44
2024/04/16 08:55:30;;;;;;;5.03;1.37;;;8.70;99.80;;;;;;5450731;26;20455;-43
2024/04/16 08:57:56;;;;;;;2.70;0.90;;;8.90;93.20;;;;;;5456017;26;20451;-43
2024/04/16 09:00:22;;;;;;;2.27;1.47;;;8.80;75.40;;;;;;5492599;26;20521;-43
2024/04/16 09:02:50;;;;;;;3.50;1.17;;;9.10;53.40;;;;;;5490639;26;20224;-44
2024/04/16 09:05:16;;;;;;;2.67;1.10;;;9.40;60.80;;;;;;5457939;26;21026;-44
2024/04/16 09:07:42;;;;;;;2.20;0.90;;;9.60;49.40;;;;;;5492169;26;20482;-54
2024/04/16 09:10:22;;;;;;;4.37;1.53;;;9.90;26.90;;;;;;5459124;26;20894;-42
2024/04/16 09:12:48;;;;;;;3.43;1.53;;;9.90;9.10;;;;;;5492074;26;20283;-45
2024/04/16 09:15:17;;;;;;;5.03;1.20;;;10.00;1.00;;;;;;5491712;26;20879;-42
2024/04/16 09:17:53;;;;;;;6.70;1.50;;;10.00;1.00;;;;;;5490640;26;20508;-43
2024/04/16 09:20:20;;;;;;;3.33;1.23;;;9.90;1.00;;;;;;5460246;26;20458;-45
2024/04/16 09:22:48;;;;;;;3.80;1.70;;;9.70;1.00;;;;;;5492837;26;20494;-42
2024/04/16 09:25:14;;;;;;;3.20;1.40;;;9.50;1.00;;;;;;5489391;26;20545;-42
2024/04/16 09:27:40;;;;;;;3.47;1.43;;;9.30;1.00;;;;;;5491984;26;20457;-42
2024/04/16 09:30:10;;;;;;;3.33;1.00;;;9.10;1.00;;;;;;5491105;26;20510;-41
2024/04/16 09:32:36;;;;;;;4.80;1.37;;;8.90;10.80;;;;;;5492248;26;20236;-41
2024/04/16 09:35:02;;;;;;;3.47;0.90;;;8.70;23.40;;;;;;5492690;26;20450;-40
2024/04/16 09:37:28;;;;;;;3.47;1.20;;;8.60;47.50;;;;;;5490726;26;20490;-38
2024/04/16 09:39:53;;;;;;;4.47;1.17;;;8.80;84.60;;;;;;5489740;26;20577;-41
2024/04/16 09:42:21;;;;;;;4.17;1.70;;;8.90;74.30;;;;;;5491106;26;20685;-40
2024/04/16 09:44:48;;;;;;;4.30;1.30;;;9.00;96.70;;;;;;5496922;26;20233;-41
2024/04/16 09:47:17;;;;;;;4.57;1.50;;;9.20;99.90;;;;;;5469686;26;20520;-41
2024/04/16 09:49:43;;;;;;;3.53;0.97;;;9.30;91.50;;;;;;5480047;26;20896;-39
2024/04/16 09:52:12;;;;;;;2.70;1.03;;;9.20;70.70;;;;;;5501117;26;20463;-41
2024/04/16 09:54:41;;;;;;;3.77;1.43;;;9.20;72.50;;;;;;5513785;26;20519;-42
2024/04/16 09:57:07;;;;;;;4.30;1.30;;;9.20;64.80;;;;;;5503372;26;20472;-41
2024/04/16 09:59:33;;;;;;;5.13;1.70;;;9.10;90.50;;;;;;5528762;26;20475;-42
2024/04/16 10:01:59;;;;;;;1.40;0.87;;;8.80;98.60;;;;;;5527791;26;20437;-42
2024/04/16 10:04:24;;;;;;;4.50;1.17;;;8.90;99.90;;;;;;5527668;26;20842;-42
2024/04/16 10:06:50;;;;;;;4.33;1.20;;;9.20;99.90;;;;;;5525063;26;20227;-41
2024/04/16 10:09:19;;;;;;;3.33;1.00;;;9.50;99.90;;;;;;5527067;26;20231;-41
2024/04/16 10:11:48;;;;;;;4.97;0.80;;;9.70;99.90;;;;;;5463805;26;20672;-41
2024/04/16 10:14:14;;;;;;;2.83;0.90;;;9.90;98.80;;;;;;5530571;26;20539;-40
2024/04/16 10:16:41;;;;;;;2.80;0.70;;;10.10;81.50;;;;;;5526193;26;20440;-38
2024/04/16 10:19:06;;;;;;;3.93;1.00;;;9.80;40.20;;;;;;5525715;26;20235;-40
2024/04/16 10:21:39;;;;;;;4.97;1.30;;;10.00;57.30;;;;;;5525164;26;20946;-38
2024/04/16 10:24:09;;;;;;;4.50;1.30;;;9.80;48.80;;;;;;5526122;26;20228;-37
2024/04/16 10:26:39;;;;;;;2.40;1.00;;;9.50;67.90;;;;;;5493170;26;20572;-40
2024/04/16 10:29:14;;;;;;;3.60;0.80;;;9.40;74.50;;;;;;5524638;26;20440;-39
2024/04/16 10:31:41;;;;;;;2.50;1.17;;;9.40;99.70;;;;;;5524530;26;20444;-38
2024/04/16 10:34:06;;;;;;;4.23;1.07;;;9.50;99.90;;;;;;5526823;26;20861;-39
2024/04/16 10:36:33;;;;;;;4.03;0.90;;;9.50;99.90;;;;;;5524990;26;20521;-39
2024/04/16 10:38:58;;;;;;;2.20;1.30;;;9.40;99.90;;;;;;5526658;26;20448;-40
2024/04/16 10:41:28;;;;;;;4.20;1.17;;;9.60;99.90;;;;;;5524745;26;20548;-40
2024/04/16 10:43:57;;;;;;;2.40;1.13;;;10.00;99.90;;;;;;5525628;26;20259;-41
2024/04/16 10:46:23;;;;;;;3.50;1.47;;;10.40;99.90;;;;;;5524515;26;20694;-40
2024/04/16 10:48:50;;;;;;;1.90;1.30;;;10.50;61.20;;;;;;5524905;26;20448;-39
2024/04/16 10:51:15;;;;;;;4.63;1.33;;;10.20;62.90;;;;;;5520973;26;20502;-41
2024/04/16 10:53:42;;;;;;;1.70;0.63;;;10.30;77.00;;;;;;5488433;26;20456;-40
2024/04/16 10:56:08;;;;;;;2.43;1.00;;;10.80;55.40;;;;;;5524145;26;20296;-40
2024/04/16 10:58:35;;;;;;;2.80;1.00;;;11.60;35.00;;;;;;5493396;26;20642;-39
2024/04/16 11:01:01;;;;;;;2.07;0.70;;;12.10;1.00;;;;;;5526596;26;20509;-40
2024/04/16 11:03:27;;;;;;;2.00;0.70;;;12.20;1.00;;;;;;5525057;26;20561;-40
2024/04/16 11:05:56;;;;;;;2.13;0.97;;;12.20;1.00;;;;;;5490426;26;20504;-40
2024/04/16 11:08:22;;;;;;;2.47;1.10;;;11.70;1.00;;;;;;5525321;26;20460;-42
2024/04/16 11:10:49;;;;;;;5.33;1.30;;;11.40;1.00;;;;;;5524768;26;20530;-39
2024/04/16 11:13:21;;;;;;;3.43;0.93;;;10.60;1.00;;;;;;5494044;26;20236;-40
2024/04/16 11:15:47;;;;;;;1.77;0.60;;;10.20;11.10;;;;;;5528124;26;20495;-40
2024/04/16 11:18:13;;;;;;;3.13;0.87;;;9.90;38.40;;;;;;5527926;26;21164;-42
2024/04/16 11:20:41;;;;;;;3.47;0.90;;;9.70;71.20;;;;;;5492938;26;20581;-41
2024/04/16 11:23:07;;;;;;;2.20;0.70;;;9.60;99.90;;;;;;5522741;26;20290;-40
2024/04/16 11:25:33;;;;;;;4.13;0.90;;;9.60;99.90;;;;;;5526023;26;20436;-39
2024/04/16 11:27:59;;;;;;;1.30;0.70;;;9.60;99.90;;;;;;5523928;26;20701;-38
2024/04/16 11:30:26;;;;;;;2.60;0.60;;;9.50;99.90;;;;;;5524232;26;20512;-40
2024/04/16 11:32:52;;;;;;;2.03;1.00;;;9.50;99.90;;;;;;5524843;26;20445;-39
2024/04/16 11:35:18;;;;;;;2.20;0.80;;;9.50;99.90;;;;;;5524637;26;20441;-41
2024/04/16 11:37:44;;;;;;;1.40;0.90;;;9.90;99.90;;;;;;5526892;26;20608;-42
2024/04/16 11:40:10;;;;;;;3.83;1.27;;;10.70;99.90;;;;;;5526410;26;20445;-40
2024/04/16 11:42:36;;;;;;;1.33;0.63;;;11.30;99.90;;;;;;5526675;26;20456;-39
2024/04/16 11:45:02;;;;;;;2.40;0.80;;;11.40;99.90;;;;;;5527292;26;20563;-39
2024/04/16 11:47:28;;;;;;;2.03;0.67;;;11.90;73.70;;;;;;5528361;26;20832;-41
2024/04/16 11:49:54;;;;;;;2.90;0.90;;;13.00;12.30;;;;;;5528103;26;20437;-39
2024/04/16 11:52:19;;;;;;;4.10;0.80;;;12.50;1.00;;;;;;5528318;26;20278;-39
2024/04/16 11:54:45;;;;;;;2.00;0.60;;;11.80;1.00;;;;;;5526638;26;20278;-39
2024/04/16 11:57:10;;;;;;;3.87;0.90;;;11.20;1.00;;;;;;5527604;26;20816;-39
2024/04/16 11:59:36;;;;;;;3.77;0.90;;;10.80;23.00;;;;;;5527405;26;20235;-39
2024/04/16 12:02:02;;;;;;;2.03;0.70;;;10.80;12.50;;;;;;5527188;26;20216;-41
2024/04/16 12:04:28;;;;;;;2.67;0.80;;;10.80;29.00;;;;;;5528540;26;20208;-38
2024/04/16 12:06:54;;;;;;;1.13;0.70;;;10.70;15.60;;;;;;5526760;26;20504;-39
2024/04/16 12:09:20;;;;;;;1.40;0.60;;;10.20;27.20;;;;;;5494315;26;20271;-38
2024/04/16 12:11:45;;;;;;;1.27;0.70;;;10.40;41.90;;;;;;5526894;26;20507;-39
2024/04/16 12:14:11;;;;;;;1.20;0.70;;;10.40;22.70;;;;;;5524933;26;20465;-39
2024/04/16 12:16:38;;;;;;;1.87;0.80;;;10.60;30.90;;;;;;5492995;26;20319;-40
2024/04/16 12:19:04;;;;;;;2.30;0.90;;;10.60;21.20;;;;;;5527583;26;20239;-42
2024/04/16 12:21:30;;;;;;;2.20;0.70;;;10.70;20.80;;;;;;5495306;26;20460;-40
2024/04/16 12:23:56;;;;;;;2.30;0.77;;;10.40;13.20;;;;;;5528462;26;20905;-41
2024/04/16 12:26:22;;;;;;;5.30;1.43;;;10.40;34.90;;;;;;5529260;26;20546;-39
2024/04/16 12:28:49;;;;;;;1.40;0.67;;;10.50;28.10;;;;;;5466025;26;20250;-40
2024/04/16 12:31:15;;;;;;;1.37;0.70;;;10.60;20.10;;;;;;5497133;26;20344;-40
2024/04/16 12:33:42;;;;;;;1.00;0.60;;;11.20;1.30;;;;;;5496135;26;20692;-43
2024/04/16 12:36:09;;;;;;;1.33;0.50;;;11.80;1.00;;;;;;5495526;26;20476;-41
2024/04/16 12:38:35;;;;;;;2.50;0.80;;;12.00;1.00;;;;;;5526978;26;20694;-40
2024/04/16 12:41:00;;;;;;;2.07;0.50;;;12.00;1.00;;;;;;5524172;26;20516;-41
2024/04/16 12:43:26;;;;;;;1.73;0.53;;;12.30;1.00;;;;;;5521303;26;20227;-41
2024/04/16 12:45:58;;;;;;;3.87;0.83;;;12.60;1.00;;;;;;5527650;26;20275;-41
2024/04/16 12:48:26;;;;;;;1.17;0.60;;;12.80;1.00;;;;;;5494350;26;20288;-40
2024/04/16 12:50:54;;;;;;;3.03;0.60;;;13.50;1.00;;;;;;5495519;26;20866;-38
2024/04/16 12:53:20;;;;;;;1.07;0.50;;;13.30;1.00;;;;;;5528304;25;20440;-40